Terminal Aerodrome Forecast
Issued by NWS

Home | Current Version | Previous Version | Text Only | Print | Product List | Glossary On
Versions: 1 2 3 4 5 6 7 8 9 10 11 12 13 14 15 16 17 18 19 20 21 22 23 24 25 26 27 28 29 30 31 32 33 34 35 36 37 38 39 40 41 42 43 44 45 46 47 48 49 50
506
FTUS44 KBMX 272017 AAD
TAFASN
TAF AMD
KASN 272017Z 2720/2818 20009G16KT P6SM VCTS BKN040CB
      TEMPO 2722/2802 2SM TSRA BKN025CB OVC040
     FM280700 22005KT 4SM BR OVC020
     FM281500 24005KT P6SM BKN030=

USA.gov is the U.S. government's official web portal to all federal, state and local government web resources and services.